Davenport, IA

4:10 PM CDT en Octubre 25, 2014 (GMT -0500)
Davenport Municipal | Change Station
CLOSE
Current Station
Aeropuerto
Location: Davenport,
Altura: 755 ft
Estaciones meteorológicas cercanas

Alt 755 ft 41.61 °N, 90.59 °W | Updated 18 minutes ago

Despejado
Despejado
72 ° F
Sensación térmica 72 ° F
N
16
Viento Variable Viento desde ONO
Gusts 20 mph

Hoy
Alta -- | Baja -- ° F
--% Posibilidad de precipitaciones
Ayer
Alta -- | Baja -- ° F
Precip. -- pul
7:25 AM 6:06 PM
Creciente, 4% visible
Presión 30.01 pul
Visibilidad 10.0 Millas
Nubes Despejado
Punto de rocío 30 ° F
Humedad 21%
Precipitaciones 0.00 pul
Espesor de la nieve No disponible.
UV 2 de una escala de 12
Polen 1.70 de una escala de 12
Calidad del aire No disponible.
Flu Activity Sporadic
METAR KDVN 252052Z AUTO 30014G17KT 10SM CLR 22/M01 A3001 RMK AO2 SLP161 T02221011 56006 TSNO

More Conditions Fewer Conditions

Presión 30.01 pul
Visibilidad 10.0 Millas
Nubes Despejado
Punto de rocío 30 ° F
Humedad 21%
Precipitaciones 0.00 pul
Espesor de la nieve No disponible.
UV 2 de una escala de 12
Polen 1.70 de una escala de 12
Calidad del aire No disponible.
Flu Activity Sporadic
METAR KDVN 252052Z AUTO 30014G17KT 10SM CLR 22/M01 A3001 RMK AO2 SLP161 T02221011 56006 TSNO

More Conditions Fewer Conditions

10-Day Weather Forecast

Almanac

Astronomía

Oct. 25, 2014 Salida Puesta
Hora real 7:25 AM CDT 6:06 PM CDT
Crepúsculo civil 6:57 AM CDT 6:34 PM CDT
Crepúsculo náutico 6:25 AM CDT 7:07 PM CDT
Crepúsculo astronómico 5:52 AM CDT 7:39 PM CDT
Luna 9:05 AM CDT 7:28 PM CDT
Horas de luz 11h 37m
Horas de luz
10h 40m
Tomorrow will be 2m 34s shorter.
Creciente, 4% of the Moon is Illuminated
Hoy
Creciente
Oct 30
Cuarto creciente
Nov 6
Luna llena
Nov 14
Cuarto menguante
Nov 22
Nueva

Extremos de hoy

Máximos del estado Bajos del estado

Community

WunderPhotos

Upload Photos

1,764,997 ¡fotos cargadas!

Nearby

Grosos de nieve

Estación Profundido Altura
No tenemos constancia de nieve nueva.

Actividad de terremotos

Ciudad Distance Mag. Tiempo y dato
No hay informes recientes de la actividad sísmica.
Magnitud mínima muestra es 2,5.

Temperaturas de aguas costeras

Lugar Temperatura
Sin partes meteorológicos de las estaciones

Estaciones meteorológicas cercanas